Time;durP1;ratioP1;P1;durP2;ratioP2;P2;SDS_P1;SDS_P2;PMS_P1;PMS_P2;Temp;Humidity;BMP_temperature;BMP_pressure;BME280_temperature;BME280_humidity;BME280_pressure;Samples;Min_cycle;Max_cycle;Signal;HPM_P1;HPM_P2
2022/06/16 00:01:57;;;;;;;5.57;5.07;;;19.60;99.90;;;;;;5036212;28;20192;-85
2022/06/16 00:04:24;;;;;;;6.77;5.87;;;19.60;99.90;;;;;;5034930;28;20219;-85
2022/06/16 00:06:52;;;;;;;6.43;5.10;;;19.60;99.90;;;;;;5035090;28;20342;-85
2022/06/16 00:09:18;;;;;;;5.60;5.00;;;19.60;99.90;;;;;;5034630;28;20663;-85
2022/06/16 00:12:04;;;;;;;5.90;5.20;;;19.60;99.90;;;;;;5034125;28;20679;-86
2022/06/16 00:14:30;;;;;;;5.80;5.30;;;19.50;99.90;;;;;;5054636;28;20525;-85
2022/06/16 00:16:57;;;;;;;6.97;5.57;;;19.50;99.90;;;;;;5046993;28;20191;-85
2022/06/16 00:19:24;;;;;;;5.77;5.00;;;19.50;99.90;;;;;;5054193;28;20214;-86
2022/06/16 00:21:50;;;;;;;5.27;4.77;;;19.40;99.90;;;;;;5053661;28;20189;-85
2022/06/16 00:24:17;;;;;;;5.83;4.67;;;19.50;99.90;;;;;;5018863;28;20211;-86
2022/06/16 00:26:46;;;;;;;7.63;5.73;;;19.50;99.90;;;;;;5050984;28;20259;-85
2022/06/16 00:29:16;;;;;;;6.03;4.80;;;19.40;99.90;;;;;;5033891;28;20535;-85
2022/06/16 00:31:43;;;;;;;6.53;4.77;;;19.40;99.90;;;;;;5034180;28;20180;-85
2022/06/16 00:34:11;;;;;;;5.57;4.60;;;19.50;99.90;;;;;;5033884;28;20616;-86
2022/06/16 00:36:38;;;;;;;5.20;4.37;;;19.50;99.90;;;;;;5034928;28;20180;-85
2022/06/16 00:39:08;;;;;;;4.70;4.20;;;19.40;99.90;;;;;;5033159;28;20192;-85
2022/06/16 00:41:34;;;;;;;6.93;3.87;;;19.30;99.90;;;;;;5050666;28;20635;-85
2022/06/16 00:44:31;;;;;;;3.93;3.53;;;19.20;99.90;;;;;;5034234;28;20184;-85
2022/06/16 00:46:58;;;;;;;5.83;3.60;;;19.20;99.90;;;;;;5048590;28;20212;-85
2022/06/16 00:49:27;;;;;;;4.67;3.70;;;19.20;99.90;;;;;;5034182;28;20181;-85
2022/06/16 00:52:06;;;;;;;5.37;3.77;;;19.10;99.90;;;;;;5033506;28;20538;-85
2022/06/16 00:54:43;;;;;;;4.57;3.80;;;19.10;99.90;;;;;;5043368;28;20670;-85
2022/06/16 00:57:36;;;;;;;4.13;3.40;;;19.20;99.90;;;;;;5037368;28;20187;-85
2022/06/16 01:00:16;;;;;;;4.10;3.70;;;19.20;99.90;;;;;;5042711;28;20547;-85
2022/06/16 01:02:42;;;;;;;4.37;3.53;;;19.20;99.90;;;;;;5037079;28;20665;-85
2022/06/16 01:05:09;;;;;;;4.27;3.40;;;19.10;99.90;;;;;;5037217;28;20652;-85
2022/06/16 01:07:44;;;;;;;3.50;3.20;;;19.00;99.90;;;;;;5036773;28;20184;-85
2022/06/16 01:10:14;;;;;;;4.47;3.70;;;19.00;99.90;;;;;;5054287;28;20250;-85
2022/06/16 01:16:17;;;;;;;3.70;3.40;;;19.00;99.90;;;;;;5049402;28;20187;-85
2022/06/16 01:19:36;;;;;;;3.73;3.37;;;19.00;99.90;;;;;;5053642;28;20172;-86
2022/06/16 01:22:38;;;;;;;5.03;3.50;;;19.00;99.90;;;;;;5039937;28;20296;-85
2022/06/16 01:25:28;;;;;;;4.40;3.33;;;19.00;99.90;;;;;;5033078;28;20184;-85
2022/06/16 01:28:24;;;;;;;4.40;3.37;;;19.00;99.90;;;;;;5021694;28;20196;-86
2022/06/16 01:31:20;;;;;;;5.33;3.50;;;19.00;99.90;;;;;;5033177;28;20188;-86
2022/06/16 01:34:22;;;;;;;3.67;3.33;;;19.00;99.90;;;;;;5033075;28;20553;-86
2022/06/16 01:37:03;;;;;;;3.93;3.40;;;19.00;99.90;;;;;;5003922;28;20186;-85
2022/06/16 01:39:50;;;;;;;4.17;3.50;;;18.90;99.90;;;;;;5031903;28;20219;-85
2022/06/16 01:43:07;;;;;;;4.47;3.47;;;18.90;99.90;;;;;;5035880;28;20237;-86
2022/06/16 01:46:11;;;;;;;3.73;3.43;;;18.90;99.90;;;;;;5030500;28;20689;-86
2022/06/16 01:48:42;;;;;;;3.60;3.27;;;18.90;99.90;;;;;;5069384;28;20176;-85
2022/06/16 01:51:33;;;;;;;3.60;3.30;;;18.90;99.90;;;;;;5042031;28;20195;-85
2022/06/16 01:54:24;;;;;;;4.57;3.17;;;18.90;99.90;;;;;;5028283;28;20176;-86
2022/06/16 01:57:53;;;;;;;3.77;3.40;;;19.00;99.90;;;;;;5036068;28;20180;-86
2022/06/16 02:00:26;;;;;;;4.20;3.43;;;19.00;99.90;;;;;;5014661;28;20198;-85
2022/06/16 02:03:09;;;;;;;4.63;3.20;;;19.00;99.90;;;;;;5048887;28;20211;-85
2022/06/16 02:05:35;;;;;;;3.83;3.30;;;18.90;99.90;;;;;;5032260;28;20712;-86
2022/06/16 02:08:16;;;;;;;4.37;3.50;;;18.90;99.90;;;;;;5015955;28;20196;-86
2022/06/16 02:10:49;;;;;;;6.67;3.93;;;18.80;99.90;;;;;;5017669;28;20184;-86
2022/06/16 02:13:24;;;;;;;4.37;3.53;;;18.80;99.90;;;;;;5035476;28;20176;-86
2022/06/16 02:16:23;;;;;;;5.43;3.47;;;18.80;99.90;;;;;;5032058;28;20202;-85
2022/06/16 02:18:52;;;;;;;4.23;3.60;;;18.90;99.90;;;;;;5032375;28;20180;-85
2022/06/16 02:21:42;;;;;;;5.50;3.90;;;18.90;99.90;;;;;;5042325;28;20188;-85
2022/06/16 02:24:18;;;;;;;5.17;3.80;;;18.90;99.90;;;;;;5029319;28;20187;-85
2022/06/16 02:26:46;;;;;;;5.93;3.87;;;18.80;99.90;;;;;;5035302;28;20698;-85
2022/06/16 02:29:37;;;;;;;4.10;3.70;;;18.90;99.90;;;;;;5048799;28;20219;-86
2022/06/16 02:32:37;;;;;;;5.13;3.80;;;18.80;99.90;;;;;;5031883;28;20644;-85
2022/06/16 02:35:34;;;;;;;3.97;3.57;;;18.80;99.90;;;;;;5015754;28;20249;-86
2022/06/16 02:38:26;;;;;;;5.23;3.73;;;18.80;99.90;;;;;;5016874;28;20285;-86
2022/06/16 02:41:39;;;;;;;7.03;3.87;;;18.80;99.90;;;;;;5057014;28;20200;-86
2022/06/16 02:44:41;;;;;;;4.00;3.50;;;18.80;99.90;;;;;;5050505;28;20266;-86
2022/06/16 02:47:44;;;;;;;4.17;3.60;;;18.80;99.90;;;;;;5034789;28;20199;-85
2022/06/16 02:50:55;;;;;;;3.83;3.40;;;18.80;99.90;;;;;;5051894;28;20195;-85
2022/06/16 02:53:57;;;;;;;3.50;3.20;;;18.80;99.90;;;;;;5041497;28;20268;-85
2022/06/16 02:56:58;;;;;;;4.33;3.77;;;18.80;99.90;;;;;;5044459;28;20194;-85
2022/06/16 02:59:42;;;;;;;3.87;3.47;;;18.80;99.90;;;;;;5034417;28;20175;-85
2022/06/16 03:02:15;;;;;;;4.43;3.80;;;18.80;99.90;;;;;;5038707;28;20202;-85
2022/06/16 03:04:47;;;;;;;5.47;3.60;;;18.80;99.90;;;;;;5036687;28;20184;-85
2022/06/16 03:07:16;;;;;;;4.90;3.93;;;18.90;99.90;;;;;;5068180;28;20297;-85
2022/06/16 03:09:43;;;;;;;4.50;4.00;;;18.90;99.90;;;;;;5048978;28;20176;-85
2022/06/16 03:12:11;;;;;;;4.30;3.83;;;18.90;99.90;;;;;;5036097;28;20335;-85
2022/06/16 03:14:39;;;;;;;5.43;3.80;;;18.90;99.90;;;;;;5047518;28;20537;-85
2022/06/16 03:17:08;;;;;;;4.57;3.77;;;18.90;99.90;;;;;;5045040;28;20246;-85
2022/06/16 03:19:35;;;;;;;4.30;3.90;;;18.90;99.90;;;;;;5015395;28;20585;-85
2022/06/16 03:22:04;;;;;;;3.90;3.50;;;18.90;99.90;;;;;;5015179;28;20187;-85
2022/06/16 03:24:31;;;;;;;4.97;3.83;;;18.90;99.90;;;;;;5029440;28;20600;-85
2022/06/16 03:26:58;;;;;;;4.20;3.80;;;18.90;99.90;;;;;;5051221;28;20203;-86
2022/06/16 03:29:25;;;;;;;4.10;3.70;;;18.90;99.90;;;;;;5050967;28;20227;-86
2022/06/16 03:31:53;;;;;;;4.57;3.90;;;19.00;99.90;;;;;;5030681;28;20662;-85
2022/06/16 03:34:19;;;;;;;4.13;3.73;;;19.00;99.90;;;;;;5047916;28;20208;-85
2022/06/16 03:36:46;;;;;;;3.73;3.43;;;19.00;99.90;;;;;;5031520;28;20188;-85
2022/06/16 03:39:13;;;;;;;6.07;4.00;;;19.00;99.90;;;;;;5047447;28;20253;-86
2022/06/16 03:41:39;;;;;;;5.47;4.23;;;19.00;99.90;;;;;;5014301;28;20192;-86
2022/06/16 03:44:06;;;;;;;6.20;4.47;;;19.00;99.90;;;;;;5031033;28;20655;-86
2022/06/16 03:46:34;;;;;;;7.80;4.33;;;19.00;99.90;;;;;;5040057;28;20211;-85
2022/06/16 03:49:01;;;;;;;5.67;4.27;;;19.00;99.90;;;;;;5014525;28;20346;-85
2022/06/16 03:51:27;;;;;;;5.67;3.77;;;19.00;99.90;;;;;;5029195;28;20196;-85
2022/06/16 03:53:54;;;;;;;5.60;4.07;;;19.10;99.90;;;;;;5050359;28;20183;-85
2022/06/16 03:56:21;;;;;;;4.00;3.60;;;19.10;99.90;;;;;;5034208;28;20680;-86
2022/06/16 03:58:52;;;;;;;6.73;4.80;;;19.10;99.90;;;;;;5047021;28;20651;-86
2022/06/16 04:01:20;;;;;;;6.13;4.00;;;19.10;99.90;;;;;;5029764;28;20200;-86
2022/06/16 04:04:00;;;;;;;6.17;4.67;;;19.10;99.90;;;;;;5015254;28;20187;-85
2022/06/16 04:06:36;;;;;;;5.30;4.50;;;19.20;99.90;;;;;;5027236;28;20199;-86
2022/06/16 04:09:05;;;;;;;8.57;4.63;;;19.20;99.90;;;;;;5041463;28;20190;-85
2022/06/16 04:11:46;;;;;;;8.37;4.27;;;19.20;99.90;;;;;;5030454;28;20560;-86
2022/06/16 04:14:14;;;;;;;8.17;4.30;;;19.20;99.90;;;;;;5050625;28;20310;-85
2022/06/16 04:16:52;;;;;;;7.77;4.57;;;19.30;99.90;;;;;;5051298;28;20555;-85
2022/06/16 04:19:22;;;;;;;6.70;4.70;;;19.40;99.90;;;;;;5050460;28;20191;-85
2022/06/16 04:21:51;;;;;;;5.67;4.63;;;19.40;99.90;;;;;;5028783;28;20273;-85
2022/06/16 04:24:19;;;;;;;5.30;4.37;;;19.50;99.90;;;;;;5046416;28;20192;-85
2022/06/16 04:26:48;;;;;;;6.30;4.37;;;19.60;99.90;;;;;;5032476;28;20200;-85
2022/06/16 04:29:14;;;;;;;7.37;4.43;;;19.60;99.90;;;;;;5043917;28;20261;-85
2022/06/16 04:31:48;;;;;;;5.10;4.50;;;19.60;99.90;;;;;;5018033;28;20867;-85
2022/06/16 04:34:14;;;;;;;4.97;3.83;;;19.70;99.90;;;;;;5018483;28;20200;-85
2022/06/16 04:36:41;;;;;;;5.13;4.63;;;19.70;99.90;;;;;;5034778;28;20194;-85
2022/06/16 04:39:19;;;;;;;6.13;4.53;;;19.80;99.90;;;;;;5034475;28;20219;-85
2022/06/16 04:41:47;;;;;;;4.30;3.67;;;19.90;99.90;;;;;;5053113;28;20288;-85
2022/06/16 04:44:13;;;;;;;4.77;4.23;;;19.90;99.90;;;;;;5033986;28;20199;-85
2022/06/16 04:46:40;;;;;;;5.13;4.47;;;19.90;99.90;;;;;;5034604;28;20201;-85
2022/06/16 04:49:06;;;;;;;6.37;4.90;;;20.00;99.90;;;;;;5018155;28;20184;-85
2022/06/16 04:51:33;;;;;;;6.20;4.90;;;20.00;99.90;;;;;;5018789;28;20207;-86
2022/06/16 04:53:59;;;;;;;5.60;5.03;;;20.10;99.90;;;;;;5043962;28;20192;-85
2022/06/16 04:56:26;;;;;;;5.43;4.93;;;20.20;99.90;;;;;;5050274;28;20829;-85
2022/06/16 04:58:52;;;;;;;5.47;4.30;;;20.20;99.90;;;;;;5036640;28;20279;-85
2022/06/16 05:01:19;;;;;;;5.80;4.90;;;20.30;99.90;;;;;;5047521;28;20191;-85
2022/06/16 05:03:45;;;;;;;4.80;4.40;;;20.30;99.90;;;;;;5044691;28;20188;-85
2022/06/16 05:06:11;;;;;;;5.80;4.50;;;20.40;99.90;;;;;;5050189;28;20204;-85
2022/06/16 05:08:38;;;;;;;7.13;4.10;;;20.40;99.90;;;;;;5050682;28;20275;-85
2022/06/16 05:11:04;;;;;;;5.23;4.10;;;20.50;99.90;;;;;;5017375;28;20636;-85
2022/06/16 05:13:31;;;;;;;9.27;4.20;;;20.50;99.90;;;;;;5017380;28;20180;-85
2022/06/16 05:15:57;;;;;;;5.60;4.60;;;20.60;99.90;;;;;;5026865;28;20203;-85
2022/06/16 05:18:24;;;;;;;11.50;4.43;;;20.60;99.90;;;;;;5046664;28;20237;-85
2022/06/16 05:20:51;;;;;;;5.90;4.27;;;20.70;99.90;;;;;;5037003;28;20552;-86
2022/06/16 05:23:18;;;;;;;9.93;4.70;;;20.70;99.90;;;;;;5036647;28;20671;-85
2022/06/16 05:25:45;;;;;;;8.57;4.60;;;20.80;99.90;;;;;;5036646;28;20211;-85
2022/06/16 05:28:12;;;;;;;4.70;3.60;;;20.90;99.90;;;;;;5062566;28;20195;-86
2022/06/16 05:30:38;;;;;;;4.83;3.93;;;21.00;99.90;;;;;;5036803;28;20184;-86
2022/06/16 05:33:05;;;;;;;6.60;4.10;;;21.00;99.90;;;;;;5029531;28;20694;-85
2022/06/16 05:35:36;;;;;;;7.67;4.20;;;21.10;99.90;;;;;;5035152;28;20223;-85
2022/06/16 05:38:03;;;;;;;6.57;4.57;;;21.10;99.90;;;;;;5032747;28;20196;-85
2022/06/16 05:40:31;;;;;;;6.30;4.67;;;21.20;99.90;;;;;;5015876;28;20199;-85
2022/06/16 05:42:58;;;;;;;5.43;4.23;;;21.30;99.90;;;;;;5033488;28;20271;-85
2022/06/16 05:45:25;;;;;;;4.67;4.17;;;21.30;99.90;;;;;;5035966;28;20203;-85
2022/06/16 05:47:53;;;;;;;4.47;4.00;;;21.40;99.90;;;;;;5032667;28;20196;-85
2022/06/16 05:50:19;;;;;;;4.33;3.93;;;21.50;99.90;;;;;;5032428;28;20200;-85
2022/06/16 05:52:46;;;;;;;4.70;4.00;;;21.50;99.90;;;;;;5016548;28;20186;-85
2022/06/16 05:55:14;;;;;;;5.13;3.87;;;21.60;99.90;;;;;;5016271;28;20180;-85
2022/06/16 05:57:41;;;;;;;5.53;3.70;;;21.70;99.90;;;;;;5027735;28;20191;-85
2022/06/16 06:00:09;;;;;;;4.43;3.97;;;21.70;99.90;;;;;;5035589;28;20179;-86
2022/06/16 06:02:35;;;;;;;5.87;4.53;;;21.80;99.90;;;;;;5032319;28;20184;-86
2022/06/16 06:05:30;;;;;;;5.43;4.10;;;21.90;99.90;;;;;;5015952;28;20198;-85
2022/06/16 06:16:37;;;;;;;5.00;3.83;;;22.40;99.90;;;;;;5052171;28;20186;-85
2022/06/16 06:19:27;;;;;;;5.60;3.73;;;22.50;99.90;;;;;;5032278;28;20246;-85
2022/06/16 06:22:19;;;;;;;4.32;3.67;;;22.60;99.90;;;;;;5037911;28;20188;-85
2022/06/16 06:24:54;;;;;;;5.05;3.95;;;22.70;99.90;;;;;;5035463;28;20184;-85
2022/06/16 06:27:46;;;;;;;4.40;3.63;;;22.80;99.90;;;;;;5027358;28;20198;-86
2022/06/16 06:30:28;;;;;;;5.30;3.80;;;22.90;99.90;;;;;;5035292;28;20531;-86
2022/06/16 06:32:57;;;;;;;5.35;4.30;;;23.10;99.90;;;;;;5037877;28;20252;-85
2022/06/16 06:35:26;;;;;;;6.45;3.88;;;23.20;99.90;;;;;;5028862;28;20188;-85
2022/06/16 06:37:54;;;;;;;4.63;3.58;;;23.30;99.90;;;;;;5039940;28;20205;-85
2022/06/16 06:40:35;;;;;;;4.70;3.83;;;23.50;99.90;;;;;;5022985;28;20196;-85
2022/06/16 06:43:07;;;;;;;5.13;4.20;;;23.50;99.90;;;;;;5050336;28;20191;-85
2022/06/16 06:45:37;;;;;;;6.13;3.92;;;23.60;99.90;;;;;;5027976;28;20257;-85
2022/06/16 06:48:07;;;;;;;6.40;4.43;;;23.60;99.90;;;;;;5029933;28;20191;-85
2022/06/16 06:50:40;;;;;;;6.45;4.30;;;23.80;99.90;;;;;;5059183;28;20195;-85
2022/06/16 06:53:09;;;;;;;6.78;4.63;;;23.90;99.90;;;;;;5033946;28;20199;-84
2022/06/16 06:55:42;;;;;;;5.63;4.60;;;24.10;99.90;;;;;;5037447;28;20182;-86
2022/06/16 06:58:23;;;;;;;6.40;4.47;;;24.30;99.90;;;;;;5035333;28;20176;-83
2022/06/16 07:01:02;;;;;;;6.38;4.50;;;24.40;99.90;;;;;;5035431;28;20182;-83
2022/06/16 07:03:40;;;;;;;5.68;4.13;;;24.50;99.90;;;;;;5031635;28;20184;-84
2022/06/16 07:06:06;;;;;;;4.40;3.83;;;24.70;99.90;;;;;;5031670;28;20203;-85
2022/06/16 07:08:43;;;;;;;5.70;4.30;;;24.70;99.90;;;;;;5031507;28;20188;-84
2022/06/16 07:11:12;;;;;;;5.25;3.90;;;24.70;99.90;;;;;;5029776;28;20183;-86
2022/06/16 07:13:53;;;;;;;4.18;3.35;;;24.80;99.90;;;;;;5051379;28;20179;-83
2022/06/16 07:16:21;;;;;;;6.50;3.80;;;24.80;99.90;;;;;;5029777;28;20198;-84
2022/06/16 07:18:48;;;;;;;9.27;4.00;;;24.80;99.90;;;;;;5034281;28;20183;-85
2022/06/16 07:21:16;;;;;;;5.07;3.28;;;24.90;99.90;;;;;;5050234;28;20237;-85
2022/06/16 07:23:44;;;;;;;5.22;4.25;;;25.00;99.90;;;;;;5015372;28;20192;-85
2022/06/16 07:26:20;;;;;;;6.90;3.20;;;25.10;99.90;;;;;;5042554;28;20199;-84
2022/06/16 07:28:48;;;;;;;6.30;3.78;;;25.10;99.90;;;;;;5029356;28;20195;-81
2022/06/16 07:31:16;;;;;;;7.50;4.00;;;25.20;99.90;;;;;;5050188;28;20187;-83
2022/06/16 07:33:44;;;;;;;4.53;3.92;;;25.20;99.90;;;;;;5037201;28;20672;-87
2022/06/16 07:36:11;;;;;;;5.97;3.22;;;25.20;99.90;;;;;;5039368;28;20188;-84
2022/06/16 07:38:38;;;;;;;5.57;3.05;;;25.30;99.90;;;;;;5035053;28;20191;-83
2022/06/16 07:44:01;;;;;;;5.22;3.00;;;25.50;99.90;;;;;;5047748;28;20237;-82
2022/06/16 07:46:37;;;;;;;7.78;4.00;;;25.60;99.90;;;;;;5036775;28;20211;-83
2022/06/16 07:49:09;;;;;;;9.43;4.60;;;25.80;99.90;;;;;;5014643;28;20278;-83
2022/06/16 07:52:07;;;;;;;7.57;3.78;;;25.70;99.90;;;;;;5033120;28;20222;-85
2022/06/16 07:54:33;;;;;;;4.68;3.60;;;25.80;99.90;;;;;;5025569;28;20715;-83
2022/06/16 07:57:11;;;;;;;4.93;3.80;;;25.90;99.90;;;;;;5059084;28;20230;-83
2022/06/16 07:59:56;;;;;;;7.18;4.43;;;26.00;99.90;;;;;;4998647;28;20190;-84
2022/06/16 08:02:28;;;;;;;6.07;4.10;;;26.10;99.90;;;;;;5039485;28;20198;-84
2022/06/16 08:05:01;;;;;;;5.47;4.45;;;26.10;99.90;;;;;;5034750;28;20215;-83
2022/06/16 08:07:31;;;;;;;7.65;4.45;;;26.20;99.90;;;;;;5026105;28;20195;-81
2022/06/16 08:09:57;;;;;;;8.27;4.68;;;26.20;99.90;;;;;;5035945;28;20199;-83
2022/06/16 08:12:45;;;;;;;7.70;4.38;;;26.20;99.90;;;;;;5035312;28;20640;-84
2022/06/16 08:15:22;;;;;;;8.13;4.60;;;26.30;99.90;;;;;;5041113;28;20184;-85
2022/06/16 08:17:58;;;;;;;6.70;4.07;;;26.40;99.90;;;;;;5054100;28;20520;-82
2022/06/16 08:20:38;;;;;;;9.57;4.90;;;26.60;99.90;;;;;;5051467;28;20524;-84
2022/06/16 08:23:12;;;;;;;5.40;4.35;;;26.60;99.90;;;;;;5036783;28;20236;-84
2022/06/16 08:25:43;;;;;;;9.90;5.18;;;26.70;99.90;;;;;;5029426;28;20202;-84
2022/06/16 08:28:15;;;;;;;8.73;5.10;;;26.60;99.90;;;;;;5037552;28;20636;-83
2022/06/16 08:30:44;;;;;;;10.60;5.15;;;26.60;99.90;;;;;;5070994;28;20179;-84
2022/06/16 08:33:40;;;;;;;6.75;4.20;;;26.60;99.90;;;;;;5033105;28;20204;-83
2022/06/16 08:36:14;;;;;;;10.55;4.18;;;26.70;99.90;;;;;;5047375;28;20573;-83
2022/06/16 08:38:43;;;;;;;8.32;5.05;;;26.90;99.90;;;;;;5066180;28;20263;-84
2022/06/16 08:41:23;;;;;;;7.90;4.30;;;26.90;99.90;;;;;;5034294;28;20185;-84
2022/06/16 08:44:13;;;;;;;8.40;5.20;;;26.90;99.90;;;;;;5045097;28;20177;-84
2022/06/16 08:46:58;;;;;;;6.65;4.85;;;26.80;99.90;;;;;;5039915;28;20298;-82
2022/06/16 08:50:23;;;;;;;6.07;4.22;;;26.80;99.90;;;;;;5052862;28;20185;-84
2022/06/16 08:53:37;;;;;;;8.77;4.78;;;26.90;99.90;;;;;;5043528;28;20188;-84
2022/06/16 08:56:32;;;;;;;8.35;4.38;;;27.00;99.90;;;;;;5053148;28;20195;-83
2022/06/16 08:59:41;;;;;;;7.03;4.57;;;27.00;99.90;;;;;;5063779;28;20223;-84
2022/06/16 09:02:52;;;;;;;6.43;4.75;;;27.20;99.90;;;;;;5023592;28;20192;-84
2022/06/16 09:05:45;;;;;;;7.05;4.63;;;27.40;99.90;;;;;;5021784;28;20258;-84
2022/06/16 09:08:53;;;;;;;4.55;3.70;;;27.70;99.90;;;;;;5016803;28;20196;-83
2022/06/16 09:12:19;;;;;;;7.90;4.28;;;27.60;99.90;;;;;;5026348;28;20186;-82
2022/06/16 09:15:11;;;;;;;5.57;3.80;;;27.60;99.90;;;;;;5018736;28;20668;-82
2022/06/16 09:18:36;;;;;;;5.88;3.35;;;27.80;99.90;;;;;;5034687;28;20700;-84
2022/06/16 09:21:39;;;;;;;4.95;3.90;;;27.80;99.90;;;;;;5015058;28;20269;-84
2022/06/16 09:24:54;;;;;;;7.50;4.22;;;28.00;99.90;;;;;;5049043;28;20187;-83
2022/06/16 09:27:41;;;;;;;5.88;4.10;;;28.00;99.90;;;;;;5044376;28;20215;-84
2022/06/16 09:30:26;;;;;;;6.47;4.05;;;28.10;99.90;;;;;;5049497;28;20190;-84
2022/06/16 09:33:15;;;;;;;6.97;4.20;;;28.00;99.90;;;;;;5031891;28;20245;-85
2022/06/16 09:36:29;;;;;;;7.03;4.20;;;28.10;99.90;;;;;;5027116;28;20194;-83
2022/06/16 09:39:31;;;;;;;6.60;4.20;;;28.10;99.90;;;;;;5036084;28;20175;-82
2022/06/16 09:45:13;;;;;;;6.25;4.18;;;28.20;99.90;;;;;;5035286;28;20187;-84
2022/06/16 09:48:05;;;;;;;7.63;4.10;;;28.20;99.90;;;;;;5023744;28;20192;-81
2022/06/16 09:50:53;;;;;;;6.30;4.05;;;28.30;99.90;;;;;;5027716;28;20196;-82
2022/06/16 09:53:51;;;;;;;7.03;4.35;;;28.30;99.90;;;;;;5035527;28;20218;-82
2022/06/16 09:56:43;;;;;;;6.38;3.70;;;28.50;99.90;;;;;;5050060;28;20188;-81
2022/06/16 09:59:44;;;;;;;7.15;4.35;;;28.50;99.90;;;;;;5033806;28;20671;-81
2022/06/16 10:02:21;;;;;;;6.43;4.32;;;28.40;99.90;;;;;;5025928;28;20191;-83
2022/06/16 10:04:53;;;;;;;5.38;3.90;;;28.40;99.90;;;;;;5031751;28;20279;-83
2022/06/16 10:07:57;;;;;;;6.80;4.30;;;28.50;99.90;;;;;;5033853;28;20564;-80
2022/06/16 10:10:55;;;;;;;7.78;4.40;;;28.30;99.90;;;;;;5033979;28;20738;-82
2022/06/16 10:13:41;;;;;;;5.97;4.03;;;28.40;99.90;;;;;;5047020;28;20789;-81
2022/06/16 10:16:19;;;;;;;7.10;3.80;;;28.60;99.90;;;;;;5048107;28;20176;-82
2022/06/16 10:18:49;;;;;;;5.72;4.00;;;28.70;99.90;;;;;;5051693;28;20187;-80
2022/06/16 10:21:17;;;;;;;7.53;4.03;;;28.60;99.90;;;;;;5017383;28;20191;-82
2022/06/16 10:23:52;;;;;;;4.90;3.72;;;28.60;99.90;;;;;;5020749;28;20285;-81
2022/06/16 10:26:19;;;;;;;8.05;3.85;;;28.60;99.90;;;;;;5049492;28;20207;-83
2022/06/16 10:29:07;;;;;;;7.75;4.22;;;28.80;99.90;;;;;;5064877;28;20697;-78
2022/06/16 10:31:58;;;;;;;6.60;3.95;;;28.60;99.90;;;;;;5047400;28;20587;-82
2022/06/16 10:34:29;;;;;;;7.68;3.90;;;28.70;99.90;;;;;;5035124;28;20246;-81
2022/06/16 10:37:24;;;;;;;5.75;3.60;;;28.60;99.90;;;;;;5051288;28;20194;-82
2022/06/16 10:40:05;;;;;;;8.55;4.07;;;28.60;99.90;;;;;;5034460;28;20180;-81
2022/06/16 10:42:50;;;;;;;5.25;3.53;;;28.70;99.90;;;;;;5024663;28;20240;-80
2022/06/16 10:45:23;;;;;;;7.50;3.58;;;28.70;99.90;;;;;;5033769;28;20193;-82
2022/06/16 10:48:07;;;;;;;5.90;3.90;;;28.70;99.90;;;;;;5047670;28;20705;-82
2022/06/16 10:51:02;;;;;;;4.53;3.53;;;28.70;99.90;;;;;;5050373;28;20176;-80
2022/06/16 10:53:39;;;;;;;6.95;3.45;;;28.70;99.90;;;;;;5029666;28;20195;-82
2022/06/16 10:56:33;;;;;;;4.82;3.38;;;28.80;99.90;;;;;;5037122;28;20669;-82
2022/06/16 10:59:20;;;;;;;5.47;3.47;;;28.80;99.90;;;;;;5032961;28;20202;-82
2022/06/16 11:02:13;;;;;;;9.25;4.32;;;28.80;99.90;;;;;;5030460;28;20179;-82
2022/06/16 11:04:43;;;;;;;7.65;3.67;;;29.00;99.90;;;;;;5052430;28;20286;-82
2022/06/16 11:07:16;;;;;;;6.05;4.00;;;28.90;99.90;;;;;;5034987;28;20560;-82
2022/06/16 11:09:45;;;;;;;5.15;3.95;;;28.80;99.90;;;;;;5031466;28;20183;-82
2022/06/16 11:12:21;;;;;;;6.88;3.90;;;28.70;99.90;;;;;;5021786;28;20192;-83
2022/06/16 11:15:09;;;;;;;7.72;3.63;;;28.50;99.90;;;;;;5014502;28;20195;-81
2022/06/16 11:18:20;;;;;;;7.05;3.50;;;28.70;99.90;;;;;;5017619;28;20209;-82
2022/06/16 11:20:55;;;;;;;7.57;4.03;;;28.40;99.90;;;;;;5033583;28;20187;-82
2022/06/16 11:23:49;;;;;;;7.70;4.18;;;28.50;99.90;;;;;;5045695;28;20659;-81
2022/06/16 11:26:32;;;;;;;7.18;4.30;;;28.50;99.90;;;;;;5044021;28;20197;-82
2022/06/16 11:29:10;;;;;;;5.70;4.25;;;28.40;99.90;;;;;;5034138;28;20186;-81
2022/06/16 11:31:47;;;;;;;7.13;4.28;;;28.40;99.90;;;;;;5034353;28;20218;-81
2022/06/16 11:34:25;;;;;;;7.18;3.95;;;28.30;99.90;;;;;;5033952;28;20195;-81
2022/06/16 11:37:12;;;;;;;10.13;4.63;;;28.50;99.90;;;;;;5022401;28;20298;-80
2022/06/16 11:40:02;;;;;;;6.90;4.25;;;28.50;99.90;;;;;;5054293;28;20184;-82
2022/06/16 11:43:10;;;;;;;9.13;4.13;;;28.50;99.90;;;;;;5037294;28;20180;-82
2022/06/16 11:45:58;;;;;;;8.90;4.43;;;28.60;99.90;;;;;;5034873;28;20195;-82
2022/06/16 11:49:11;;;;;;;9.32;4.30;;;28.50;99.90;;;;;;5051814;28;20176;-80
2022/06/16 11:52:17;;;;;;;6.25;4.00;;;28.50;99.90;;;;;;5041442;28;20869;-81
2022/06/16 11:55:19;;;;;;;7.82;4.60;;;28.40;99.90;;;;;;5034265;28;20203;-80
2022/06/16 11:58:27;;;;;;;6.47;3.90;;;28.40;99.90;;;;;;5050896;28;20492;-83
2022/06/16 12:01:13;;;;;;;6.32;4.07;;;28.50;99.90;;;;;;5034609;28;20230;-82
2022/06/16 12:03:54;;;;;;;5.88;4.10;;;28.70;99.90;;;;;;5052492;28;20180;-80
2022/06/16 12:07:13;;;;;;;7.65;4.50;;;28.70;99.90;;;;;;5045594;28;20194;-83
2022/06/16 12:09:52;;;;;;;11.02;4.53;;;28.70;99.90;;;;;;5044879;28;20237;-82
2022/06/16 12:12:46;;;;;;;8.43;4.32;;;28.70;99.90;;;;;;5018344;28;20222;-83
2022/06/16 12:15:45;;;;;;;6.25;4.68;;;28.50;99.90;;;;;;5025832;28;20183;-81
2022/06/16 12:18:46;;;;;;;9.32;4.40;;;28.40;99.90;;;;;;5018569;28;20346;-80
2022/06/16 12:21:52;;;;;;;8.25;4.78;;;28.40;99.90;;;;;;5018355;28;20223;-80
2022/06/16 12:24:52;;;;;;;6.50;4.25;;;28.40;99.90;;;;;;5030610;28;20270;-82
2022/06/16 12:27:54;;;;;;;7.63;4.78;;;28.50;99.90;;;;;;5037740;28;20179;-83
2022/06/16 12:30:43;;;;;;;8.43;4.55;;;28.40;99.90;;;;;;5044732;28;20184;-81
2022/06/16 12:33:53;;;;;;;7.68;4.30;;;28.40;99.90;;;;;;5035399;28;20664;-80
2022/06/16 12:36:39;;;;;;;12.25;4.68;;;28.30;99.90;;;;;;5038753;28;20210;-81
2022/06/16 12:39:20;;;;;;;6.97;4.30;;;28.40;99.90;;;;;;5010875;28;20192;-82
2022/06/16 12:41:55;;;;;;;6.28;4.38;;;28.30;99.90;;;;;;5034190;28;20180;-82
2022/06/16 12:44:42;;;;;;;10.68;4.90;;;28.40;99.90;;;;;;5034854;28;20238;-82
2022/06/16 12:47:26;;;;;;;7.65;4.22;;;28.40;99.90;;;;;;5049611;28;20652;-81
2022/06/16 12:50:20;;;;;;;7.72;4.45;;;28.40;99.90;;;;;;5050453;28;20667;-81
2022/06/16 12:53:13;;;;;;;8.63;4.40;;;28.40;99.90;;;;;;5023823;28;20188;-80
2022/06/16 12:56:08;;;;;;;6.25;4.35;;;28.40;99.90;;;;;;5046998;28;20200;-81
2022/06/16 12:59:06;;;;;;;6.57;4.32;;;28.30;99.90;;;;;;5048406;28;20653;-81
2022/06/16 13:01:39;;;;;;;10.65;4.57;;;28.20;99.90;;;;;;5039712;28;20250;-82
2022/06/16 13:04:15;;;;;;;8.23;4.47;;;28.20;99.90;;;;;;5017494;28;20259;-82
2022/06/16 13:06:45;;;;;;;9.85;4.93;;;28.20;99.90;;;;;;5025942;28;20191;-81
2022/06/16 13:09:13;;;;;;;9.02;4.65;;;28.20;99.90;;;;;;5049982;28;20188;-82
2022/06/16 13:12:05;;;;;;;7.90;4.40;;;28.10;99.90;;;;;;5021653;28;20188;-82
2022/06/16 13:14:59;;;;;;;10.25;4.47;;;28.20;99.90;;;;;;5048448;28;20199;-81
2022/06/16 13:17:37;;;;;;;6.95;4.25;;;28.20;99.90;;;;;;5036619;28;20687;-82
2022/06/16 13:20:12;;;;;;;4.82;4.20;;;28.20;99.90;;;;;;5049280;28;20774;-82
2022/06/16 13:23:02;;;;;;;7.10;3.83;;;28.20;99.90;;;;;;5036666;28;20186;-82
2022/06/16 13:25:53;;;;;;;7.22;4.15;;;28.10;99.90;;;;;;5043723;28;20194;-80
2022/06/16 13:28:40;;;;;;;8.15;4.40;;;28.00;99.90;;;;;;5026570;28;20298;-81
2022/06/16 13:32:02;;;;;;;8.35;4.05;;;28.00;99.90;;;;;;5031992;28;20670;-81
2022/06/16 13:34:56;;;;;;;7.38;4.25;;;28.00;99.90;;;;;;5031527;28;20200;-81
2022/06/16 13:37:43;;;;;;;7.55;4.60;;;27.90;99.90;;;;;;5043984;28;20790;-80
2022/06/16 13:40:09;;;;;;;10.10;4.93;;;27.80;99.90;;;;;;5041545;28;20187;-81
2022/06/16 13:42:55;;;;;;;6.38;4.90;;;27.90;99.90;;;;;;5043045;28;20188;-82
2022/06/16 13:45:33;;;;;;;7.38;4.45;;;27.90;99.90;;;;;;5018390;28;20184;-80
2022/06/16 13:48:46;;;;;;;11.40;5.00;;;28.00;99.90;;;;;;5033309;28;20663;-82
2022/06/16 13:51:43;;;;;;;6.95;3.90;;;28.00;99.90;;;;;;5035826;28;20831;-83
2022/06/16 13:54:15;;;;;;;7.55;4.10;;;27.80;99.90;;;;;;5032118;28;20191;-82
2022/06/16 13:56:45;;;;;;;30.55;6.07;;;27.80;99.90;;;;;;5032781;28;20274;-82
2022/06/16 13:59:33;;;;;;;10.43;4.78;;;27.90;99.90;;;;;;5050898;28;20275;-83
2022/06/16 14:02:53;;;;;;;10.57;4.68;;;27.90;99.90;;;;;;5046670;28;20179;-82
2022/06/16 14:05:34;;;;;;;6.90;4.40;;;27.90;99.90;;;;;;5020754;28;20180;-82
2022/06/16 14:08:14;;;;;;;8.73;4.60;;;28.00;99.90;;;;;;5023613;28;20187;-82
2022/06/16 14:11:35;;;;;;;11.13;4.22;;;27.90;99.90;;;;;;5037937;28;20187;-83
2022/06/16 14:14:51;;;;;;;5.93;4.18;;;27.80;99.90;;;;;;5019112;28;20416;-81